createdAt,value
2022-12-16T00:00:01.603Z,99.90
2022-12-16T00:02:31.760Z,121.17
2022-12-16T00:05:02.124Z,107.30
2022-12-16T00:07:34.929Z,128.03
2022-12-16T00:10:05.060Z,102.17
2022-12-16T00:12:35.052Z,110.53
2022-12-16T00:15:05.139Z,98.93
2022-12-16T00:17:36.254Z,118.40
2022-12-16T00:20:06.800Z,109.73
2022-12-16T00:22:39.372Z,144.17
2022-12-16T00:25:11.412Z,123.73
2022-12-16T00:27:41.427Z,106.00
2022-12-16T00:30:13.440Z,123.63
2022-12-16T00:32:43.473Z,117.60
2022-12-16T00:35:13.466Z,130.43
2022-12-16T00:37:46.065Z,98.43
2022-12-16T00:40:16.297Z,123.67
2022-12-16T00:42:46.385Z,115.03
2022-12-16T00:45:16.815Z,116.50
2022-12-16T00:47:46.868Z,114.20
2022-12-16T00:50:16.983Z,117.20
2022-12-16T00:52:50.060Z,118.33
2022-12-16T00:55:21.446Z,102.47
2022-12-16T00:57:51.745Z,115.97
2022-12-16T01:00:22.514Z,120.13
2022-12-16T01:02:54.813Z,126.07
2022-12-16T01:05:27.518Z,114.03
2022-12-16T01:08:00.422Z,115.77
2022-12-16T01:10:31.486Z,112.43
2022-12-16T01:13:01.471Z,127.63
2022-12-16T01:15:31.496Z,129.70
2022-12-16T01:18:01.579Z,92.93
2022-12-16T01:20:31.666Z,115.30
2022-12-16T01:23:04.264Z,112.03
2022-12-16T01:25:34.424Z,134.73
2022-12-16T01:28:04.559Z,125.83
2022-12-16T01:30:34.823Z,115.13
2022-12-16T01:33:04.973Z,125.00
2022-12-16T01:38:27.615Z,136.70
2022-12-16T01:40:57.811Z,115.07
2022-12-16T01:43:31.643Z,119.00
2022-12-16T01:46:07.905Z,127.90
2022-12-16T01:48:55.120Z,99.97
2022-12-16T01:51:31.295Z,138.47
2022-12-16T01:54:09.547Z,110.90
2022-12-16T01:56:47.408Z,133.10
2022-12-16T01:59:21.306Z,109.67
2022-12-16T02:01:51.490Z,117.97
2022-12-16T02:04:21.597Z,126.90
2022-12-16T02:06:52.062Z,119.27
2022-12-16T02:09:24.931Z,130.93
2022-12-16T02:12:20.475Z,139.67
2022-12-16T02:15:16.948Z,138.27
2022-12-16T02:18:02.594Z,129.20
2022-12-16T02:21:20.292Z,134.70
2022-12-16T02:24:52.988Z,133.93
2022-12-16T02:27:53.008Z,132.80
2022-12-16T02:30:55.257Z,131.83
2022-12-16T02:34:04.908Z,117.87
2022-12-16T02:36:57.336Z,114.33
2022-12-16T02:39:38.164Z,132.50
2022-12-16T02:42:17.643Z,134.57
2022-12-16T02:45:00.223Z,139.40
2022-12-16T02:47:34.186Z,130.63
2022-12-16T02:50:04.622Z,120.30
2022-12-16T02:52:37.861Z,151.37
2022-12-16T02:55:11.787Z,121.03
2022-12-16T02:58:06.059Z,123.67
2022-12-16T03:00:48.200Z,122.43
2022-12-16T03:03:30.977Z,134.97
2022-12-16T03:06:04.636Z,132.50
2022-12-16T03:08:42.369Z,138.57
2022-12-16T03:11:12.672Z,112.00
2022-12-16T03:13:49.294Z,115.97
2022-12-16T03:16:26.203Z,169.40
2022-12-16T03:19:05.544Z,153.87
2022-12-16T03:21:42.350Z,132.87
2022-12-16T03:24:14.618Z,137.87
2022-12-16T03:26:54.263Z,124.83
2022-12-16T03:29:33.467Z,146.70
2022-12-16T03:32:08.263Z,133.17
2022-12-16T03:34:47.695Z,131.20
2022-12-16T03:37:18.060Z,105.63
2022-12-16T03:39:53.449Z,114.90
2022-12-16T03:42:23.388Z,127.73
2022-12-16T03:44:53.885Z,114.67
2022-12-16T03:47:24.291Z,105.37
2022-12-16T03:49:56.966Z,121.30
2022-12-16T03:52:26.956Z,132.00
2022-12-16T03:54:58.088Z,117.83
2022-12-16T03:57:28.196Z,133.23
2022-12-16T03:59:58.176Z,117.97
2022-12-16T04:02:28.352Z,127.30
2022-12-16T04:05:01.033Z,140.47
2022-12-16T04:07:31.217Z,123.50
2022-12-16T04:10:01.170Z,124.30
2022-12-16T04:12:43.639Z,141.70
2022-12-16T04:15:27.143Z,123.17
2022-12-16T04:18:09.752Z,121.20
2022-12-16T04:21:00.856Z,129.73
2022-12-16T04:23:46.257Z,129.97
2022-12-16T04:26:16.510Z,118.47
2022-12-16T04:28:46.481Z,120.43
2022-12-16T04:31:16.703Z,117.50
2022-12-16T04:33:59.354Z,108.23
2022-12-16T04:36:44.199Z,121.87
2022-12-16T04:39:26.682Z,120.60
2022-12-16T04:42:09.695Z,113.47
2022-12-16T04:45:01.008Z,108.57
2022-12-16T04:47:43.535Z,105.90
2022-12-16T04:50:26.112Z,109.10
2022-12-16T04:53:11.525Z,96.17
2022-12-16T04:55:57.904Z,104.70
2022-12-16T04:58:43.143Z,110.33
2022-12-16T05:01:25.818Z,92.37
2022-12-16T05:04:08.431Z,118.17
2022-12-16T05:06:50.981Z,108.77
2022-12-16T05:09:36.050Z,101.73
2022-12-16T05:12:19.148Z,102.23
2022-12-16T05:15:01.611Z,100.77
2022-12-16T05:17:44.128Z,82.37
2022-12-16T05:20:27.067Z,85.73
2022-12-16T05:23:11.603Z,82.83
2022-12-16T05:25:56.714Z,88.43
2022-12-16T05:28:39.206Z,91.13
2022-12-16T05:31:21.791Z,89.50
2022-12-16T05:34:04.355Z,70.83
2022-12-16T05:36:46.880Z,79.17
2022-12-16T05:39:29.429Z,101.20
2022-12-16T05:42:14.559Z,92.83
2022-12-16T05:44:57.085Z,94.40
2022-12-16T05:47:40.153Z,89.83
2022-12-16T05:50:23.741Z,83.00
2022-12-16T05:53:06.670Z,82.53
2022-12-16T05:55:49.287Z,95.00
2022-12-16T05:58:34.504Z,76.93
2022-12-16T06:01:16.992Z,83.70
2022-12-16T06:03:59.532Z,74.77
2022-12-16T06:06:42.183Z,72.83
2022-12-16T06:09:24.874Z,73.03
2022-12-16T06:12:07.427Z,79.47
2022-12-16T06:14:52.548Z,95.50
2022-12-16T06:17:36.457Z,95.20
2022-12-16T06:20:32.507Z,76.77
2022-12-16T06:23:15.024Z,78.67
2022-12-16T06:25:57.898Z,72.63
2022-12-16T06:28:45.655Z,79.23
2022-12-16T06:31:31.230Z,92.83
2022-12-16T06:34:13.875Z,85.57
2022-12-16T06:36:56.619Z,98.27
2022-12-16T06:39:39.236Z,97.03
2022-12-16T06:42:21.791Z,71.23
2022-12-16T06:45:04.352Z,72.97
2022-12-16T06:47:49.621Z,72.80
2022-12-16T06:50:44.775Z,73.97
2022-12-16T06:53:27.635Z,63.43
2022-12-16T06:56:10.164Z,66.73
2022-12-16T06:58:52.665Z,67.17
2022-12-16T07:01:35.335Z,67.57
2022-12-16T07:04:20.870Z,47.53
2022-12-16T07:07:03.402Z,64.30
2022-12-16T07:09:51.505Z,52.60
2022-12-16T07:12:34.360Z,56.47
2022-12-16T07:15:16.970Z,52.00
2022-12-16T07:18:01.371Z,50.23
2022-12-16T07:20:46.631Z,48.43
2022-12-16T07:23:29.150Z,50.60
2022-12-16T07:26:11.654Z,47.57
2022-12-16T07:28:54.200Z,48.47
2022-12-16T07:31:37.119Z,60.17
2022-12-16T07:34:19.670Z,52.90
2022-12-16T07:37:04.803Z,53.60
2022-12-16T07:39:54.299Z,46.20
2022-12-16T07:42:37.723Z,44.03
2022-12-16T07:45:21.727Z,41.80
2022-12-16T07:48:04.994Z,53.57
2022-12-16T07:50:47.554Z,36.47
2022-12-16T07:53:32.935Z,48.03
2022-12-16T07:56:15.771Z,49.80
2022-12-16T07:58:58.272Z,38.57
2022-12-16T08:01:40.965Z,44.40
2022-12-16T08:04:23.621Z,42.50
2022-12-16T08:07:06.147Z,53.53
2022-12-16T08:09:51.243Z,40.17
2022-12-16T08:12:33.754Z,40.70
2022-12-16T08:15:16.310Z,37.17
2022-12-16T08:18:04.417Z,44.97
2022-12-16T08:20:46.967Z,46.97
2022-12-16T08:23:29.612Z,39.17
2022-12-16T08:26:14.768Z,39.40
2022-12-16T08:29:05.527Z,43.77
2022-12-16T08:31:59.820Z,45.67
2022-12-16T08:34:42.364Z,36.77
2022-12-16T08:37:25.108Z,34.87
2022-12-16T08:43:14.229Z,38.23
2022-12-16T08:45:56.924Z,48.80
2022-12-16T08:48:39.428Z,45.87
2022-12-16T08:51:22.549Z,44.50
2022-12-16T08:54:05.136Z,44.93
2022-12-16T08:56:48.138Z,31.00
2022-12-16T08:59:33.304Z,41.40
2022-12-16T09:02:16.660Z,35.90
2022-12-16T09:04:59.544Z,33.80
2022-12-16T09:07:42.048Z,28.47
2022-12-16T09:10:24.611Z,36.10
2022-12-16T09:13:07.330Z,32.80
2022-12-16T09:15:53.731Z,36.27
2022-12-16T09:18:36.245Z,25.20
2022-12-16T09:21:21.588Z,34.23
2022-12-16T09:24:04.075Z,37.83
2022-12-16T09:26:46.691Z,27.60
2022-12-16T09:29:29.226Z,36.10
2022-12-16T09:32:14.443Z,22.70
2022-12-16T09:34:56.920Z,36.37
2022-12-16T09:37:39.408Z,33.57
2022-12-16T09:40:27.117Z,26.83
2022-12-16T09:43:23.850Z,26.13
2022-12-16T09:46:25.374Z,23.30
2022-12-16T09:49:35.697Z,26.07
2022-12-16T09:52:24.482Z,37.23
2022-12-16T09:55:07.303Z,22.43
2022-12-16T09:57:52.348Z,24.87
2022-12-16T10:00:38.917Z,21.63
2022-12-16T10:03:34.828Z,23.10
2022-12-16T10:06:37.195Z,19.83
2022-12-16T10:09:31.659Z,22.77
2022-12-16T10:12:26.524Z,21.00
2022-12-16T10:15:24.669Z,20.57
2022-12-16T10:18:07.339Z,22.80
2022-12-16T10:21:00.220Z,23.70
2022-12-16T10:23:58.988Z,19.67
2022-12-16T10:27:04.953Z,19.80
2022-12-16T10:29:55.632Z,22.10
2022-12-16T10:32:47.630Z,27.97
2022-12-16T10:35:38.733Z,19.63
2022-12-16T10:38:33.755Z,20.07
2022-12-16T10:41:21.667Z,19.17
2022-12-16T10:44:05.563Z,22.57
2022-12-16T10:46:50.803Z,17.67
2022-12-16T10:49:34.893Z,18.33
2022-12-16T10:52:17.876Z,18.27
2022-12-16T10:55:11.411Z,17.53
2022-12-16T10:58:11.565Z,25.03
2022-12-16T11:00:59.058Z,22.33
2022-12-16T11:03:45.216Z,23.93
2022-12-16T11:06:33.030Z,21.43
2022-12-16T11:09:36.307Z,27.83
2022-12-16T11:12:38.965Z,16.33
2022-12-16T11:15:42.534Z,17.97
2022-12-16T11:18:28.732Z,21.30
2022-12-16T11:21:28.645Z,20.07
2022-12-16T11:24:31.367Z,17.27
2022-12-16T11:27:16.907Z,19.43
2022-12-16T11:30:11.465Z,17.80
2022-12-16T11:33:02.450Z,22.70
2022-12-16T11:35:52.573Z,23.47
2022-12-16T11:38:42.679Z,15.67
2022-12-16T11:41:38.008Z,22.67
2022-12-16T11:44:29.009Z,19.60
2022-12-16T11:47:11.480Z,15.47
2022-12-16T11:49:56.559Z,21.23
2022-12-16T11:52:39.402Z,15.30
2022-12-16T11:56:03.393Z,24.43
2022-12-16T11:58:44.719Z,19.93
2022-12-16T12:01:35.366Z,19.20
2022-12-16T12:04:20.905Z,21.93
2022-12-16T12:07:29.061Z,20.57
2022-12-16T12:10:29.040Z,18.70
2022-12-16T12:13:20.870Z,19.53
2022-12-16T12:16:19.860Z,17.47
2022-12-16T12:19:19.324Z,18.70
2022-12-16T12:22:14.493Z,23.70
2022-12-16T12:25:08.461Z,17.23
2022-12-16T12:28:01.448Z,22.23
2022-12-16T12:30:54.648Z,18.87
2022-12-16T12:33:53.495Z,15.90
2022-12-16T12:36:49.589Z,24.33
2022-12-16T12:39:43.057Z,20.77
2022-12-16T12:42:49.597Z,22.57
2022-12-16T12:46:10.191Z,19.90
2022-12-16T12:49:05.890Z,19.23
2022-12-16T12:52:06.011Z,21.67
2022-12-16T12:55:00.465Z,18.03
2022-12-16T12:57:45.803Z,20.67
2022-12-16T13:00:35.232Z,15.60
2022-12-16T13:03:29.370Z,15.27
2022-12-16T13:06:25.257Z,18.37
2022-12-16T13:09:13.443Z,21.57
2022-12-16T13:12:44.291Z,23.70
2022-12-16T13:15:35.514Z,20.43
2022-12-16T13:18:44.509Z,18.67
2022-12-16T13:22:03.346Z,20.23
2022-12-16T13:25:02.214Z,23.13
2022-12-16T13:28:08.020Z,17.83
2022-12-16T13:30:51.115Z,18.60
2022-12-16T13:33:41.722Z,16.70
2022-12-16T13:36:27.658Z,16.63
2022-12-16T13:39:14.931Z,20.67
2022-12-16T13:42:15.299Z,19.40
2022-12-16T13:45:14.844Z,23.43
2022-12-16T13:48:20.739Z,13.30
2022-12-16T13:51:06.411Z,14.43
2022-12-16T13:53:56.714Z,14.03
2022-12-16T13:56:48.593Z,14.77
2022-12-16T13:59:36.556Z,14.30
2022-12-16T14:02:46.331Z,13.50
2022-12-16T14:05:42.595Z,19.10
2022-12-16T14:08:33.005Z,15.53
2022-12-16T14:11:21.036Z,16.77
2022-12-16T14:14:16.394Z,15.67
2022-12-16T14:17:08.200Z,20.87
2022-12-16T14:20:11.350Z,18.13
2022-12-16T14:23:32.387Z,26.10
2022-12-16T14:26:15.948Z,18.00
2022-12-16T14:29:01.775Z,18.23
2022-12-16T14:31:53.246Z,21.47
2022-12-16T14:34:39.056Z,20.27
2022-12-16T14:37:29.176Z,19.50
2022-12-16T14:40:11.736Z,20.73
2022-12-16T14:42:56.745Z,20.90
2022-12-16T14:45:45.961Z,18.77
2022-12-16T14:48:47.473Z,21.97
2022-12-16T14:51:40.200Z,22.40
2022-12-16T14:54:57.936Z,18.00
2022-12-16T14:57:42.652Z,21.67
2022-12-16T15:00:33.032Z,20.57
2022-12-16T15:03:42.261Z,22.23
2022-12-16T15:06:33.457Z,14.30
2022-12-16T15:09:20.882Z,17.73
2022-12-16T15:12:09.779Z,15.10
2022-12-16T15:14:56.257Z,16.43
2022-12-16T15:17:43.691Z,18.07
2022-12-16T15:20:35.616Z,18.87
2022-12-16T15:23:18.262Z,14.70
2022-12-16T15:26:09.413Z,18.13
2022-12-16T15:28:59.878Z,19.17
2022-12-16T15:31:51.472Z,17.83
2022-12-16T15:34:45.323Z,15.80
2022-12-16T15:37:35.124Z,22.27
2022-12-16T15:40:18.041Z,20.37
2022-12-16T15:43:06.494Z,18.97
2022-12-16T15:45:52.510Z,19.30
2022-12-16T15:48:40.107Z,25.03
2022-12-16T15:51:38.351Z,20.93
2022-12-16T15:54:21.243Z,16.50
2022-12-16T15:57:13.301Z,18.00
2022-12-16T16:00:12.810Z,14.73
2022-12-16T16:03:03.593Z,18.13
2022-12-16T16:05:47.609Z,15.80
2022-12-16T16:08:30.121Z,18.73
2022-12-16T16:11:13.144Z,18.13
2022-12-16T16:13:59.353Z,16.83
2022-12-16T16:16:47.021Z,14.03
2022-12-16T16:19:39.099Z,21.63
2022-12-16T16:22:26.753Z,17.23
2022-12-16T16:25:09.265Z,18.13
2022-12-16T16:27:51.980Z,18.03
2022-12-16T16:30:34.804Z,19.17
2022-12-16T16:33:25.840Z,18.50
2022-12-16T16:36:11.294Z,22.83
2022-12-16T16:38:53.924Z,18.17
2022-12-16T16:41:38.940Z,20.70
2022-12-16T16:44:30.387Z,20.43
2022-12-16T16:47:14.021Z,14.20
2022-12-16T16:50:00.806Z,17.70
2022-12-16T16:52:47.096Z,29.53
2022-12-16T16:55:32.889Z,17.00
2022-12-16T16:58:15.682Z,23.33
2022-12-16T17:00:58.296Z,22.30
2022-12-16T17:03:41.661Z,20.43
2022-12-16T17:06:24.730Z,16.30
2022-12-16T17:09:09.849Z,22.50
2022-12-16T17:11:54.247Z,19.20
2022-12-16T17:14:37.236Z,28.30
2022-12-16T17:17:21.133Z,26.70
2022-12-16T17:20:03.742Z,15.47
2022-12-16T17:22:46.585Z,24.50
2022-12-16T17:25:32.531Z,19.50
2022-12-16T17:28:15.899Z,24.80
2022-12-16T17:30:58.502Z,21.67
2022-12-16T17:33:43.847Z,29.50
2022-12-16T17:36:31.867Z,21.67
2022-12-16T17:39:15.339Z,25.40
2022-12-16T17:42:00.970Z,16.80
2022-12-16T17:44:43.574Z,22.50
2022-12-16T17:47:26.147Z,22.43
2022-12-16T17:50:08.727Z,21.40
2022-12-16T17:52:51.435Z,22.00
2022-12-16T17:55:34.235Z,28.17
2022-12-16T17:58:19.340Z,24.83
2022-12-16T18:01:01.969Z,17.97
2022-12-16T18:03:44.715Z,21.50
2022-12-16T18:06:27.419Z,20.57
2022-12-16T18:09:09.729Z,23.53
2022-12-16T18:11:52.346Z,24.90
2022-12-16T18:14:38.006Z,28.37
2022-12-16T18:17:20.805Z,26.40
2022-12-16T18:20:03.363Z,20.70
2022-12-16T18:22:45.858Z,28.40
2022-12-16T18:25:28.664Z,27.27
2022-12-16T18:28:11.200Z,21.53
2022-12-16T18:30:56.293Z,24.83
2022-12-16T18:33:38.888Z,24.80
2022-12-16T18:36:22.354Z,24.70
2022-12-16T18:39:04.914Z,24.83
2022-12-16T18:41:47.426Z,22.63
2022-12-16T18:44:30.362Z,25.80
2022-12-16T18:47:15.815Z,24.43
2022-12-16T18:49:58.608Z,25.53
2022-12-16T18:52:41.250Z,21.83
2022-12-16T18:55:24.203Z,29.80
2022-12-16T18:58:20.974Z,35.27
2022-12-16T19:01:17.877Z,31.57
2022-12-16T19:04:03.200Z,20.30
2022-12-16T19:06:45.728Z,25.60
2022-12-16T19:09:28.254Z,28.10
2022-12-16T19:12:10.787Z,31.67
2022-12-16T19:14:53.301Z,29.83
2022-12-16T19:17:50.786Z,29.20
2022-12-16T19:20:36.785Z,26.23
2022-12-16T19:23:19.567Z,36.57
2022-12-16T19:26:02.087Z,31.60
2022-12-16T19:28:44.847Z,28.33
2022-12-16T19:31:32.535Z,29.63
2022-12-16T19:34:29.995Z,26.00
2022-12-16T19:37:15.108Z,33.90
2022-12-16T19:39:57.939Z,34.20
2022-12-16T19:42:40.695Z,29.20
2022-12-16T19:45:24.767Z,37.90
2022-12-16T19:48:07.647Z,34.83
2022-12-16T19:50:50.333Z,29.67
2022-12-16T19:53:35.592Z,36.00
2022-12-16T19:56:18.173Z,33.67
2022-12-16T19:59:01.281Z,28.10
2022-12-16T20:01:44.574Z,34.67
2022-12-16T20:04:27.535Z,26.73
2022-12-16T20:07:10.078Z,24.43
2022-12-16T20:09:56.113Z,36.93
2022-12-16T20:12:38.754Z,34.07
2022-12-16T20:15:23.007Z,37.27
2022-12-16T20:18:05.475Z,40.20
2022-12-16T20:20:48.128Z,33.77
2022-12-16T20:23:30.764Z,38.23
2022-12-16T20:26:17.533Z,31.37
2022-12-16T20:29:00.881Z,33.70
2022-12-16T20:31:43.599Z,33.37
2022-12-16T20:34:26.589Z,36.70
2022-12-16T20:37:09.116Z,29.30
2022-12-16T20:39:56.449Z,27.27
2022-12-16T20:42:43.610Z,25.57
2022-12-16T20:45:31.312Z,29.77
2022-12-16T20:48:13.836Z,30.40
2022-12-16T20:50:56.605Z,28.97
2022-12-16T20:53:39.678Z,28.13
2022-12-16T20:56:22.649Z,29.97
2022-12-16T20:59:07.830Z,25.03
2022-12-16T21:04:54.137Z,27.37
2022-12-16T21:07:37.510Z,27.50
2022-12-16T21:10:21.393Z,31.47
2022-12-16T21:13:06.993Z,38.90
2022-12-16T21:15:53.453Z,35.23
2022-12-16T21:18:40.005Z,30.00
2022-12-16T21:21:37.520Z,28.50
2022-12-16T21:24:20.715Z,25.80
2022-12-16T21:27:03.277Z,34.53
2022-12-16T21:29:45.819Z,29.57
2022-12-16T21:32:30.933Z,29.17
2022-12-16T21:35:13.428Z,35.10
2022-12-16T21:37:55.908Z,27.17
2022-12-16T21:40:39.083Z,28.50
2022-12-16T21:43:21.642Z,33.60
2022-12-16T21:46:07.940Z,33.27
2022-12-16T21:48:53.095Z,45.10
2022-12-16T21:51:38.947Z,26.67
2022-12-16T21:54:21.583Z,34.27
2022-12-16T21:57:04.296Z,30.70
2022-12-16T21:59:46.850Z,29.00
2022-12-16T22:02:29.763Z,40.37
2022-12-16T22:05:15.067Z,31.60
2022-12-16T22:07:57.891Z,31.97
2022-12-16T22:10:40.538Z,35.63
2022-12-16T22:13:23.059Z,42.40
2022-12-16T22:16:11.231Z,36.97
2022-12-16T22:18:53.775Z,40.03
2022-12-16T22:21:41.471Z,28.10
2022-12-16T22:24:24.267Z,33.83
2022-12-16T22:27:06.804Z,28.90
2022-12-16T22:29:49.332Z,36.23
2022-12-16T22:32:31.844Z,30.67
2022-12-16T22:35:14.370Z,32.93
2022-12-16T22:37:59.565Z,30.30
2022-12-16T22:40:42.096Z,24.17
2022-12-16T22:43:24.699Z,31.63
2022-12-16T22:46:14.823Z,41.97
2022-12-16T22:48:57.360Z,39.47
2022-12-16T22:51:39.898Z,31.50
2022-12-16T22:54:24.973Z,30.67
2022-12-16T22:57:07.534Z,33.80
2022-12-16T22:59:50.219Z,35.73
2022-12-16T23:02:32.733Z,34.23
2022-12-16T23:05:15.359Z,36.73
2022-12-16T23:07:58.011Z,29.90
2022-12-16T23:10:43.318Z,34.40
2022-12-16T23:13:27.809Z,28.80
2022-12-16T23:16:10.448Z,28.00
2022-12-16T23:18:56.459Z,27.83
2022-12-16T23:21:54.052Z,34.27
2022-12-16T23:24:36.584Z,49.67
2022-12-16T23:27:21.822Z,30.37
2022-12-16T23:30:04.361Z,28.80
2022-12-16T23:32:46.906Z,35.17
2022-12-16T23:35:29.646Z,36.13
2022-12-16T23:38:16.706Z,29.73
2022-12-16T23:40:59.421Z,36.60
2022-12-16T23:43:44.707Z,35.83
2022-12-16T23:46:27.352Z,37.50
2022-12-16T23:49:09.966Z,29.10
2022-12-16T23:51:52.475Z,33.40
2022-12-16T23:54:34.992Z,31.87
2022-12-16T23:57:17.524Z,31.27
